Station: Hindmarsh Island

  Atmospheric Gas Attenuation - ITU Rec 676-11   --------------- db/100km ---------------
Date Time Temp RH % AH g/m3 Dew Point Wind Direction Speed kph Gust kph Barometer mB Rainfall Since 9am 24GHz 47GHz 76GHz 122GHz 134GHz 241GHz
15 00:00 10.1 97 9.17 9.6 19 20 1017.3 7.4 21.0 28.1 44.3 116.5 111.6 384.2
14 23:50 10.2 97 9.23 9.7 20 24 1017.2 7.4 21.1 28.2 44.5 117.0 112.3 386.6
14 23:40 10.1 97 9.17 9.6 20 20 1017.2 7.4 21.0 28.1 44.3 116.5 111.6 384.1
14 23:30 10.2 97 9.23 9.7 20 22 1017.2 7.4 21.1 28.2 44.5 117.0 112.3 386.6
14 23:20 10.1 97 9.17 9.6 19 20 1017.2 7.4 21.0 28.1 44.3 116.5 111.6 384.1
14 23:10 10.1 97 9.17 9.6 17 19 1017.3 7.4 21.0 28.1 44.3 116.5 111.6 384.2
14 23:00 10.1 98 9.27 9.8 13 15 1017.2 7.4 21.2 28.3 44.8 117.6 113.0 389.1
14 22:50 9.9 97 9.06 9.4 11 11 1017.1 7.4 20.8 28.0 44.0 115.5 110.3 379.6
14 22:40 10.1 97 9.17 9.6 13 15 1016.9 7.2 21.0 28.1 44.3 116.4 111.6 384.1
14 22:30 10.1 97 9.17 9.6 13 13 1016.8 7.2 21.0 28.1 44.3 116.4 111.6 384.0
14 22:20 10.1 97 9.17 9.6 11 13 1016.7 7.2 21.0 28.1 44.3 116.4 111.6 384.0
14 22:10 10.1 97 9.17 9.6 11 13 1016.7 7.2 21.0 28.1 44.3 116.4 111.6 384.0
14 22:00 10.2 97 9.23 9.7 11 13 1016.7 7.2 21.1 28.2 44.5 116.9 112.3 386.5
14 21:50 10.2 97 9.23 9.7 11 13 1016.7 7.2 21.1 28.2 44.5 116.9 112.3 386.5
14 21:40 10.3 97 9.29 9.8 13 15 1016.8 7.2 21.2 28.3 44.7 117.5 113.0 389.0
14 21:30 10.3 97 9.29 9.8 9 11 1016.7 7 21.2 28.3 44.7 117.5 113.0 389.0
14 21:20 10.3 97 9.29 9.8 9 11 1016.7 7 21.2 28.3 44.7 117.5 113.0 389.0
14 21:10 10.3 97 9.29 9.8 7 9 1016.7 7 21.2 28.3 44.7 117.5 113.0 389.0
14 21:00 10.3 97 9.29 9.8 11 11 1016.5 7 21.2 28.3 44.7 117.5 113.0 388.9
14 20:50 10.3 97 9.29 9.8 13 15 1016.4 7 21.2 28.2 44.7 117.5 113.0 388.9
14 20:40 10.4 97 9.35 9.9 9 11 1016.5 7 21.4 28.3 44.9 118.0 113.7 391.4
14 20:30 10.4 97 9.35 9.9 7 7 1016.5 7 21.4 28.3 44.9 118.0 113.7 391.4
14 20:20 10.4 97 9.35 9.9 9 11 1016.4 7 21.4 28.3 44.9 118.0 113.7 391.4
14 20:10 10.5 97 9.41 10 13 13 1016.2 7 21.5 28.4 45.1 118.5 114.3 393.8
14 20:00 10.6 97 9.47 10.1 11 17 1016.2 7 21.6 28.5 45.3 119.1 115.1 396.3
14 19:50 10.7 97 9.53 10.2 17 20 1016.1 7 21.7 28.5 45.5 119.6 115.7 398.7
14 19:40 10.7 97 9.53 10.2 15 19 1015.8 7 21.7 28.5 45.5 119.6 115.7 398.6
14 19:30 10.9 97 9.65 10.4 20 22 1015.7 7 22.0 28.7 45.9 120.6 117.1 403.5
14 19:20 10.9 97 9.65 10.4 22 24 1015.6 7 22.0 28.7 45.9 120.6 117.1 403.5
14 19:10 11.1 97 9.77 10.6 22 24 1015.6 7 22.2 28.8 46.3 121.7 118.5 408.5
14 19:00 11.4 97 9.96 10.9 17 19 1015.5 7 22.6 29.0 46.9 123.4 120.8 416.4
14 18:50 11.4 96 9.86 10.8 20 20 1015.4 7 22.4 28.8 46.5 122.2 119.3 411.3
14 18:40 11.5 96 9.92 10.9 15 17 1015.3 7 22.5 28.9 46.7 122.8 120.0 413.7
14 18:30 11.6 97 10.08 11.1 20 20 1015.1 7 22.9 29.2 47.3 124.5 122.1 421.2
14 18:20 11.6 96 9.98 11 15 19 1014.9 7 22.7 29.0 46.9 123.3 120.7 416.1
14 18:10 11.8 97 10.21 11.3 19 19 1014.7 7 23.2 29.3 47.7 125.6 123.6 426.5
14 18:00 11.8 97 10.21 11.3 19 20 1014.5 7 23.2 29.3 47.7 125.6 123.6 426.4
14 17:50 11.7 96 10.04 11.1 22 24 1014.3 7 22.8 29.0 47.0 123.7 121.3 418.3
14 17:40 11.9 96 10.17 11.3 20 24 1014.1 7 23.1 29.2 47.5 124.9 122.8 423.7
14 17:30 12.1 96 10.3 11.5 20 22 1013.8 7 23.3 29.3 47.9 126.1 124.4 429.0
14 17:20 12.1 96 10.3 11.5 19 20 1013.8 7 23.3 29.3 47.9 126.1 124.4 429.0
14 17:10 12.2 96 10.36 11.6 17 17 1013.8 7 23.5 29.4 48.1 126.6 125.1 431.5
14 17:00 12.3 96 10.43 11.7 20 22 1013.8 7 23.6 29.5 48.4 127.2 125.9 434.4
14 16:50 12.7 95 10.58 11.9 19 20 1013.6 7 23.9 29.6 48.7 128.3 127.4 439.6
14 16:40 13 96 10.89 12.4 9 9 1013.5 7 24.6 30.0 49.9 131.4 131.3 453.5
14 16:30 12.9 95 10.71 12.1 13 15 1013.2 7 24.2 29.7 49.2 129.4 128.9 444.9
14 16:20 13 95 10.77 12.2 13 15 1013.1 7 24.3 29.8 49.4 130.0 129.5 447.3
14 16:10 13.2 94 10.79 12.3 7 9 1012.9 7 24.3 29.8 49.3 129.8 129.5 447.1
14 16:00 13.3 94 10.86 12.4 7 9 1012.8 6.8 24.5 29.9 49.6 130.5 130.3 450.0
14 15:50 13.8 94 11.2 12.9 11 11 1012.7 6.8 25.2 30.3 50.7 133.6 134.3 464.1
14 15:40 14.3 94 11.55 13.3 11 15 1012.7 6.8 25.9 30.7 51.9 136.8 138.5 478.7
14 15:30 14.5 96 11.94 13.9 9 11 1012.5 6.8 26.7 31.3 53.5 141.1 143.8 497.2
14 15:20 14.3 96 11.79 13.7 11 11 1012.5 6.8 26.4 31.1 53.0 139.7 142.0 490.9
14 15:10 14 96 11.58 13.4 13 13 1012.5 6.8 26.0 30.9 52.3 137.7 139.5 482.1
14 15:00 14.1 96 11.65 13.5 6 9 1012.5 6.8 26.1 31.0 52.5 138.4 140.3 485.0
14 14:50 13.8 95 11.32 13 7 7 1012.2 6.8 25.4 30.5 51.2 134.9 136.0 470.0
14 14:40 13.6 95 11.18 12.8 13 13 1012 6.8 25.1 30.3 50.7 133.6 134.3 464.0
14 14:30 13.6 95 11.18 12.8 11 15 1012.1 6.8 25.1 30.3 50.7 133.6 134.3 464.1
14 14:20 13.7 94 11.13 12.8 11 13 1012 6 25.0 30.2 50.4 132.9 133.4 460.9
14 14:10 13.6 94 11.06 12.7 7 9 1012.3 5.6 24.9 30.1 50.2 132.3 132.6 458.1
14 14:00 13.5 94 11 12.6 7 9 1012.4 5 24.8 30.0 50.0 131.7 131.9 455.7
14 13:50 13.5 94 11 12.6 11 11 1012.4 4.2 24.8 30.0 50.0 131.7 131.9 455.7
14 13:40 13.6 94 11.06 12.7 22 24 1012.2 3.6 24.9 30.1 50.2 132.2 132.6 458.0
14 13:30 13.6 92 10.83 12.3 20 26 1012.2 3 24.4 29.7 49.2 129.6 129.3 446.5
14 13:20 13.7 88 10.42 11.7 19 22 1012.2 2.4 23.5 28.9 47.4 124.7 123.3 425.6
14 13:10 14.3 87 10.69 12.2 20 24 1012.2 1.4 24.0 29.2 48.2 126.8 126.1 435.5
14 13:00 15.5 90 11.9 13.9 11 15 1012 0.2 26.6 30.9 52.6 138.7 141.3 488.6
14 12:50 15.6 91 12.1 14.1 9 13 1012.2 0.2 27.0 31.2 53.5 140.9 144.0 498.1
14 12:40 15.6 91 12.1 14.1 11 11 1012.3 0.2 27.0 31.2 53.5 140.9 144.0 498.2
14 12:30 15.5 91 12.03 14 9 11 1012.4 0.2 26.9 31.1 53.2 140.3 143.2 495.3
14 12:20 15.4 91 11.96 13.9 11 13 1012.5 0.2 26.7 31.1 53.0 139.7 142.4 492.4
14 12:10 15.5 92 12.16 14.2 13 15 1012.6 0.2 27.1 31.4 53.8 141.9 145.1 502.0
14 12:00 15 91 11.67 13.5 9 13 1012.8 0 26.1 30.7 52.0 137.0 139.0 480.4
14 11:50 15.3 93 12.14 14.2 7 9 1012.9 0 27.1 31.4 53.9 142.0 145.2 502.4
14 11:40 15.5 94 12.43 14.5 11 13 1012.9 0 27.7 31.9 55.0 145.1 149.1 515.9
14 11:30 15.5 96 12.69 14.9 11 13 1012.9 0 28.3 32.3 56.2 148.2 152.9 529.3
14 11:20 14.9 96 12.24 14.3 9 11 1013.1 0 27.3 31.8 54.6 144.0 147.5 510.2
14 11:10 14.1 96 11.65 13.5 11 11 1013.4 0 26.1 31.0 52.6 138.5 140.4 485.3
14 11:00 13.9 97 11.63 13.4 9 13 1013.5 0 26.1 31.0 52.6 138.6 140.5 485.6
14 10:50 13.5 96 11.23 12.9 9 11 1013.6 0 25.3 30.5 51.1 134.6 135.4 467.7
14 10:40 13.7 97 11.49 13.2 11 11 1013.6 0 25.8 30.9 52.1 137.3 138.8 479.8
14 10:30 13.1 97 11.07 12.6 15 17 1013.7 0 24.9 30.3 50.7 133.4 133.8 462.1
14 10:20 13 97 11 12.5 11 13 1013.8 0 24.8 30.2 50.4 132.8 133.0 459.2
14 10:10 12.9 97 10.93 12.4 9 9 1013.9 0 24.6 30.2 50.2 132.1 132.1 456.2
14 10:00 12.8 97 10.87 12.3 7 9 1013.9 0 24.5 30.1 50.0 131.6 131.4 453.8
14 09:50 12.6 97 10.73 12.1 11 13 1013.9 0 24.2 29.9 49.5 130.3 129.7 447.9
14 09:40 12.4 97 10.6 11.9 9 11 1013.8 0 24.0 29.7 49.0 129.1 128.2 442.4
14 09:30 12.2 97 10.47 11.7 11 15 1013.8 0 23.7 29.6 48.6 127.9 126.6 437.0
14 09:20 12.4 97 10.6 11.9 11 11 1013.8 0 24.0 29.7 49.0 129.1 128.2 442.4
14 09:10 11.7 97 10.15 11.2 11 13 1013.8 0 23.0 29.2 47.5 125.0 122.9 423.7
14 09:00 11.5 97 10.02 11 9 11 1013.9 0 22.8 29.0 47.1 123.8 121.3 418.3
14 08:50 11.4 97 9.96 10.9 11 13 1013.8 10.8 22.6 29.0 46.8 123.2 120.6 415.8
14 08:40 11.3 97 9.9 10.8 9 11 1013.7 10.8 22.5 28.9 46.6 122.7 119.9 413.3
14 08:30 11.2 97 9.83 10.7 13 13 1013.7 10.8 22.4 28.8 46.4 122.0 119.0 410.3
14 08:20 11 97 9.71 10.5 15 15 1013.8 10.8 22.1 28.7 46.0 120.9 117.6 405.4
14 08:10 10.9 97 9.65 10.4 11 11 1013.8 10.8 22.0 28.6 45.8 120.4 116.9 402.9
14 08:00 10.9 97 9.65 10.4 13 19 1013.8 10.8 22.0 28.6 45.8 120.4 116.9 402.9
14 07:50 10.7 97 9.53 10.2 17 19 1013.8 10.8 21.7 28.4 45.4 119.3 115.5 398.0
14 07:40 10.6 97 9.47 10.1 15 17 1013.7 10.8 21.6 28.4 45.2 118.8 114.8 395.5
14 07:30 10.5 97 9.41 10 19 20 1013.7 10.8 21.5 28.3 45.0 118.2 114.1 393.0

Last Refresh: 15-Jun-2024 00:09:10

Bureau of Meteorology